Time;durP1;ratioP1;P1;durP2;ratioP2;P2;SDS_P1;SDS_P2;PMS_P1;PMS_P2;Temp;Humidity;BMP_temperature;BMP_pressure;BME280_temperature;BME280_humidity;BME280_pressure;Samples;Min_cycle;Max_cycle;Signal;HPM_P1;HPM_P2
2024/04/19 04:02:28;;;;;;;6.90;1.40;;;5.80;99.90;;;;;;5308234;22;20737;-77
2024/04/19 04:04:56;;;;;;;1.55;1.42;;;5.80;99.90;;;;;;5242131;27;20237;-76
2024/04/19 04:07:25;;;;;;;2.88;1.60;;;5.70;99.90;;;;;;5210605;27;20289;-76
2024/04/19 04:09:53;;;;;;;1.00;1.00;;;5.70;99.90;;;;;;5210029;27;20241;-76
2024/04/19 04:12:21;;;;;;;2.00;1.90;;;5.70;99.90;;;;;;5209845;27;20347;-75
2024/04/19 04:14:50;;;;;;;1.38;1.38;;;5.60;99.90;;;;;;5230453;27;20252;-76
2024/04/19 04:17:18;;;;;;;1.35;1.30;;;5.60;99.90;;;;;;5230902;27;20245;-76
2024/04/19 04:19:49;;;;;;;1.90;1.83;;;5.50;99.90;;;;;;5209792;27;20325;-75
2024/04/19 04:22:18;;;;;;;1.35;1.35;;;5.40;99.90;;;;;;5210248;27;20288;-77
2024/04/19 04:24:46;;;;;;;1.88;1.88;;;5.40;99.90;;;;;;5209384;27;20284;-77
2024/04/19 04:27:15;;;;;;;1.50;1.45;;;5.30;99.90;;;;;;5221706;27;20285;-77
2024/04/19 04:29:44;;;;;;;2.15;1.85;;;5.30;99.90;;;;;;5226089;27;20349;-77
2024/04/19 04:32:13;;;;;;;1.00;1.00;;;5.30;99.90;;;;;;5210054;27;20241;-77
2024/04/19 04:34:41;;;;;;;2.10;1.55;;;5.30;99.90;;;;;;5209151;27;20242;-77
2024/04/19 04:37:12;;;;;;;1.60;1.50;;;5.30;99.90;;;;;;5208280;27;20241;-76
2024/04/19 04:39:40;;;;;;;8.10;2.00;;;5.20;99.90;;;;;;5205793;27;20346;-76
2024/04/19 04:42:09;;;;;;;2.05;1.95;;;5.30;99.90;;;;;;5205968;27;21990;-77
2024/04/19 04:44:37;;;;;;;1.60;1.60;;;5.20;99.90;;;;;;5207552;27;20619;-74
2024/04/19 04:47:06;;;;;;;2.78;2.38;;;5.20;99.90;;;;;;5207064;27;20245;-76
2024/04/19 04:49:34;;;;;;;1.77;1.77;;;5.20;99.90;;;;;;5206073;27;20246;-76
2024/04/19 04:52:03;;;;;;;3.25;3.15;;;5.20;99.90;;;;;;5207795;27;20252;-76
2024/04/19 04:54:34;;;;;;;1.40;1.35;;;5.20;99.90;;;;;;5195453;27;20246;-76
2024/04/19 04:57:07;;;;;;;2.17;1.25;;;5.20;99.90;;;;;;5207373;27;20364;-76
2024/04/19 04:59:35;;;;;;;1.25;1.25;;;5.10;99.90;;;;;;5206676;27;20254;-76
2024/04/19 05:02:04;;;;;;;1.55;1.55;;;5.20;99.90;;;;;;5207765;27;21141;-76
2024/04/19 05:04:33;;;;;;;1.00;0.98;;;5.10;99.90;;;;;;5204575;27;20887;-76
2024/04/19 05:07:01;;;;;;;1.85;1.75;;;5.20;99.90;;;;;;5207444;27;20246;-77
2024/04/19 05:09:29;;;;;;;2.03;1.95;;;5.10;99.90;;;;;;5206769;27;20237;-76
2024/04/19 05:12:00;;;;;;;2.17;1.75;;;5.20;99.90;;;;;;5206142;27;20291;-75
2024/04/19 05:14:29;;;;;;;1.85;1.17;;;5.20;99.90;;;;;;5207146;27;20329;-76
2024/04/19 05:16:57;;;;;;;1.08;1.08;;;5.10;99.90;;;;;;5207528;27;20798;-76
2024/04/19 05:19:25;;;;;;;2.15;1.98;;;5.20;99.90;;;;;;5205982;27;20284;-76
2024/04/19 05:21:54;;;;;;;1.75;1.75;;;5.20;99.90;;;;;;5207399;27;20692;-74
2024/04/19 05:24:22;;;;;;;18.77;10.23;;;5.20;99.90;;;;;;5206363;27;20740;-75
2024/04/19 05:26:51;;;;;;;3.85;3.50;;;5.20;99.90;;;;;;5207521;27;20234;-76
2024/04/19 05:29:22;;;;;;;6.70;2.80;;;5.20;99.90;;;;;;5205719;27;20269;-75
2024/04/19 05:31:50;;;;;;;2.53;2.42;;;5.10;99.90;;;;;;5205357;27;20578;-74
2024/04/19 05:34:18;;;;;;;4.82;4.53;;;5.10;99.90;;;;;;5205384;27;20256;-74
2024/04/19 05:36:47;;;;;;;10.95;5.95;;;5.10;99.90;;;;;;5207499;27;20661;-74
2024/04/19 05:39:15;;;;;;;4.25;2.78;;;5.10;99.90;;;;;;5204237;27;20365;-74
2024/04/19 05:41:44;;;;;;;5.25;4.78;;;5.10;99.90;;;;;;5202788;27;20257;-74
2024/04/19 05:44:18;;;;;;;4.57;4.20;;;5.10;99.90;;;;;;5209271;27;20241;-74
2024/04/19 05:46:49;;;;;;;4.57;3.50;;;5.10;99.90;;;;;;5209441;27;20739;-73
2024/04/19 05:49:17;;;;;;;1.58;1.52;;;5.10;99.90;;;;;;5212712;27;20249;-73
2024/04/19 05:51:46;;;;;;;2.10;2.00;;;5.10;99.90;;;;;;5211257;27;20616;-73
2024/04/19 05:54:14;;;;;;;1.50;1.45;;;5.10;99.90;;;;;;5205006;27;20237;-74
2024/04/19 05:56:43;;;;;;;2.88;2.78;;;5.10;99.90;;;;;;5205882;27;20339;-73
2024/04/19 05:59:11;;;;;;;3.60;3.40;;;5.10;99.90;;;;;;5205228;27;20740;-73
2024/04/19 06:01:39;;;;;;;2.08;1.95;;;5.10;99.90;;;;;;5205556;27;20748;-75
2024/04/19 06:04:10;;;;;;;3.60;2.10;;;5.10;99.90;;;;;;5206419;27;20348;-75
2024/04/19 06:06:39;;;;;;;2.25;2.15;;;5.10;99.90;;;;;;5198576;27;20233;-74
2024/04/19 06:09:07;;;;;;;2.50;2.40;;;5.10;99.90;;;;;;5204866;27;20245;-72
2024/04/19 06:11:35;;;;;;;1.80;1.80;;;5.10;99.90;;;;;;5198030;27;20328;-74
2024/04/19 06:14:04;;;;;;;2.15;2.00;;;5.20;99.90;;;;;;5205886;27;20354;-74
2024/04/19 06:16:32;;;;;;;2.75;2.60;;;5.20;99.90;;;;;;5205928;27;20268;-74
2024/04/19 06:19:00;;;;;;;2.80;2.67;;;5.20;99.90;;;;;;5205601;27;20543;-73
2024/04/19 06:21:33;;;;;;;2.40;2.30;;;5.30;99.90;;;;;;5204278;27;20260;-73
2024/04/19 06:24:02;;;;;;;3.28;3.08;;;5.30;99.90;;;;;;5205487;27;20765;-74
2024/04/19 06:26:30;;;;;;;3.15;2.90;;;5.30;99.90;;;;;;5204388;27;20249;-74
2024/04/19 06:28:58;;;;;;;2.47;2.38;;;5.40;99.90;;;;;;5204880;27;20347;-73
2024/04/19 06:31:27;;;;;;;1.80;1.70;;;5.50;99.90;;;;;;5205626;27;20615;-74
2024/04/19 06:33:55;;;;;;;3.58;3.28;;;5.50;99.90;;;;;;5205161;27;20315;-74
2024/04/19 06:36:24;;;;;;;2.13;2.08;;;5.60;99.90;;;;;;5205103;27;20242;-74
2024/04/19 06:38:57;;;;;;;2.50;2.40;;;5.60;99.90;;;;;;5204929;27;20589;-74
2024/04/19 06:41:26;;;;;;;2.50;2.40;;;5.60;99.90;;;;;;5199517;27;20740;-74
2024/04/19 06:43:54;;;;;;;3.03;2.85;;;5.60;99.90;;;;;;5208692;27;20847;-74
2024/04/19 06:46:22;;;;;;;3.28;3.08;;;5.70;99.90;;;;;;5208822;27;20694;-74
2024/04/19 06:48:51;;;;;;;1.83;1.83;;;5.70;99.90;;;;;;5208052;27;20279;-74
2024/04/19 06:51:19;;;;;;;3.85;3.53;;;5.70;99.90;;;;;;5208323;27;20317;-74
2024/04/19 06:53:47;;;;;;;2.70;2.45;;;5.70;99.90;;;;;;5208502;27;20296;-74
2024/04/19 06:56:18;;;;;;;2.20;1.85;;;5.80;99.90;;;;;;5204030;27;20571;-75
2024/04/19 06:58:48;;;;;;;3.25;3.05;;;5.80;99.90;;;;;;5208410;27;20234;-74
2024/04/19 07:01:17;;;;;;;2.97;2.78;;;5.80;99.90;;;;;;5203769;27;20249;-74
2024/04/19 07:03:45;;;;;;;2.90;2.70;;;5.80;99.90;;;;;;5208763;27;21095;-75
2024/04/19 07:06:14;;;;;;;4.22;4.03;;;5.80;99.90;;;;;;5210667;27;20713;-76
2024/04/19 07:08:43;;;;;;;4.05;3.75;;;5.90;99.90;;;;;;5209001;27;20249;-76
2024/04/19 07:11:11;;;;;;;3.55;3.05;;;5.90;99.90;;;;;;5208693;27;20245;-76
2024/04/19 07:13:46;;;;;;;3.60;3.40;;;5.90;99.90;;;;;;5208677;27;20245;-77
2024/04/19 07:16:14;;;;;;;3.85;3.55;;;6.00;99.90;;;;;;5208013;27;20291;-76
2024/04/19 07:18:43;;;;;;;3.55;3.25;;;6.00;99.90;;;;;;5208380;27;20736;-75
2024/04/19 07:21:11;;;;;;;3.72;3.42;;;6.00;99.90;;;;;;5208614;27;20549;-77
2024/04/19 07:23:40;;;;;;;3.65;3.22;;;6.10;99.90;;;;;;5194325;27;20238;-75
2024/04/19 07:26:08;;;;;;;2.92;2.83;;;6.10;99.90;;;;;;5208222;27;20238;-76
2024/04/19 07:28:36;;;;;;;4.13;3.38;;;6.20;99.90;;;;;;5208163;27;20576;-76
2024/04/19 07:31:07;;;;;;;5.00;2.67;;;6.20;99.90;;;;;;5206933;27;20332;-75
2024/04/19 07:33:36;;;;;;;4.90;4.25;;;6.30;99.90;;;;;;5208234;27;20241;-76
2024/04/19 07:36:04;;;;;;;3.88;3.58;;;6.40;99.90;;;;;;5207700;27;20309;-77
2024/04/19 07:38:35;;;;;;;4.38;4.05;;;6.40;99.90;;;;;;5207197;27;20245;-76
2024/04/19 07:41:04;;;;;;;4.28;3.40;;;6.50;99.90;;;;;;5207097;27;20284;-76
2024/04/19 07:43:33;;;;;;;3.78;3.47;;;6.50;99.90;;;;;;5206069;27;20407;-75
2024/04/19 07:46:01;;;;;;;4.05;3.85;;;6.50;99.90;;;;;;5215274;27;20246;-74
2024/04/19 07:48:32;;;;;;;3.85;3.55;;;6.60;99.90;;;;;;5214688;27;20283;-76
2024/04/19 07:51:01;;;;;;;4.43;4.13;;;6.60;99.90;;;;;;5214773;27;20237;-74
2024/04/19 07:53:30;;;;;;;3.22;3.03;;;6.60;99.90;;;;;;5214908;27;20280;-75
2024/04/19 07:55:59;;;;;;;3.65;3.45;;;6.60;99.90;;;;;;5212491;27;20313;-75
2024/04/19 07:58:28;;;;;;;3.90;3.50;;;6.60;99.90;;;;;;5211724;27;20279;-75
2024/04/19 08:00:56;;;;;;;4.38;4.07;;;6.70;99.90;;;;;;5217667;27;20954;-75
2024/04/19 08:03:25;;;;;;;4.55;4.22;;;6.70;99.90;;;;;;5225627;27;20304;-75
2024/04/19 08:05:56;;;;;;;5.82;4.60;;;6.80;99.90;;;;;;5223595;27;20349;-76
2024/04/19 08:08:25;;;;;;;4.13;3.92;;;6.80;99.90;;;;;;5209340;27;20287;-76
2024/04/19 08:10:53;;;;;;;4.97;4.68;;;6.80;99.90;;;;;;5208534;27;20257;-76
2024/04/19 08:13:21;;;;;;;3.80;3.60;;;6.90;99.90;;;;;;5208195;27;20237;-76
2024/04/19 08:15:50;;;;;;;3.50;3.30;;;7.00;99.90;;;;;;5205979;27;20245;-74
2024/04/19 08:18:18;;;;;;;4.22;3.92;;;7.10;99.90;;;;;;5207207;27;20234;-76
2024/04/19 08:20:47;;;;;;;4.50;4.18;;;7.20;99.90;;;;;;5207152;27;20245;-76
2024/04/19 08:23:17;;;;;;;4.43;3.80;;;7.30;99.90;;;;;;5201351;27;20288;-75
2024/04/19 08:25:46;;;;;;;4.00;3.80;;;7.30;99.90;;;;;;5200771;27;20233;-76
2024/04/19 08:28:15;;;;;;;5.00;4.50;;;7.50;99.90;;;;;;5200024;27;20280;-76
2024/04/19 08:30:43;;;;;;;4.32;4.00;;;7.60;99.90;;;;;;5199387;27;20245;-75
2024/04/19 08:33:12;;;;;;;5.13;4.63;;;7.70;99.90;;;;;;5207333;27;20254;-76
2024/04/19 08:35:40;;;;;;;4.90;4.50;;;7.80;99.90;;;;;;5207278;27;20335;-75
2024/04/19 08:38:10;;;;;;;5.70;5.28;;;7.80;99.90;;;;;;5207534;27;20348;-75
2024/04/19 08:40:43;;;;;;;4.20;4.00;;;7.90;99.90;;;;;;5201388;27;20241;-75
2024/04/19 08:43:17;;;;;;;4.32;3.80;;;7.80;99.90;;;;;;5207366;27;20245;-74
2024/04/19 08:45:46;;;;;;;3.92;3.63;;;7.70;99.90;;;;;;5200612;27;20237;-73
2024/04/19 08:48:15;;;;;;;5.47;4.13;;;7.80;99.90;;;;;;5205898;27;20241;-72
2024/04/19 08:50:46;;;;;;;8.70;3.90;;;7.80;99.90;;;;;;5206659;27;20241;-72
2024/04/19 08:53:16;;;;;;;5.07;4.05;;;7.80;99.90;;;;;;5206979;27;20279;-73
2024/04/19 08:55:50;;;;;;;5.28;4.63;;;7.90;99.90;;;;;;5198797;27;20299;-75
2024/04/19 08:58:19;;;;;;;5.13;4.10;;;8.00;99.90;;;;;;5201012;27;20240;-74
2024/04/19 09:00:48;;;;;;;4.15;3.90;;;8.10;99.90;;;;;;5206401;27;20351;-74
2024/04/19 09:03:16;;;;;;;3.47;3.28;;;8.30;99.90;;;;;;5199646;27;20280;-74
2024/04/19 09:05:45;;;;;;;4.40;4.07;;;8.50;99.90;;;;;;5200516;27;20340;-75
2024/04/19 09:08:15;;;;;;;4.28;4.07;;;8.70;99.90;;;;;;5205550;27;21058;-74
2024/04/19 09:10:43;;;;;;;4.55;4.15;;;9.00;99.90;;;;;;5200804;27;20253;-75
2024/04/19 09:13:14;;;;;;;3.28;2.97;;;9.30;99.90;;;;;;5206979;27;21030;-75
2024/04/19 09:15:42;;;;;;;3.13;3.03;;;9.50;99.90;;;;;;5206877;27;20242;-75
2024/04/19 09:18:11;;;;;;;3.50;2.65;;;9.60;99.90;;;;;;5207833;27;20249;-73
2024/04/19 09:20:45;;;;;;;2.90;2.70;;;9.80;99.90;;;;;;5206734;27;20295;-73
2024/04/19 09:23:13;;;;;;;2.15;2.05;;;10.00;99.90;;;;;;5204340;27;20361;-76
2024/04/19 09:25:42;;;;;;;1.83;1.73;;;10.20;99.90;;;;;;5206274;27;20299;-74
2024/04/19 09:28:14;;;;;;;2.03;1.93;;;10.40;99.90;;;;;;5206056;27;20485;-73
2024/04/19 09:30:46;;;;;;;3.10;1.97;;;10.50;99.90;;;;;;5205951;27;20542;-75
2024/04/19 09:33:18;;;;;;;2.97;1.90;;;10.60;99.90;;;;;;5206912;27;20552;-74
2024/04/19 09:35:47;;;;;;;5.10;1.60;;;10.70;99.90;;;;;;5199714;27;20476;-75
2024/04/19 09:38:17;;;;;;;1.60;1.53;;;10.70;99.90;;;;;;5198390;27;20596;-75
2024/04/19 09:40:48;;;;;;;1.40;1.40;;;10.90;99.90;;;;;;5201277;27;20602;-74
2024/04/19 09:43:17;;;;;;;1.67;1.57;;;11.10;99.90;;;;;;5199446;27;20529;-75
2024/04/19 09:45:51;;;;;;;2.10;1.50;;;11.20;99.90;;;;;;5199187;27;20473;-75
2024/04/19 09:48:21;;;;;;;1.77;0.80;;;11.20;99.90;;;;;;5200091;27;20834;-74
2024/04/19 09:50:51;;;;;;;2.17;0.90;;;11.20;99.90;;;;;;5199054;27;20493;-74
2024/04/19 09:53:24;;;;;;;1.30;1.20;;;11.20;99.90;;;;;;5199993;27;20807;-75
2024/04/19 09:56:03;;;;;;;1.13;1.00;;;11.10;99.90;;;;;;5200747;27;20525;-74
2024/04/19 09:58:32;;;;;;;0.73;0.73;;;11.10;99.90;;;;;;5204783;27;20922;-75
2024/04/19 10:01:04;;;;;;;3.30;0.70;;;11.00;99.90;;;;;;5205352;27;20497;-74
2024/04/19 10:03:33;;;;;;;0.97;0.63;;;10.90;99.90;;;;;;5205639;27;20481;-75
2024/04/19 10:06:05;;;;;;;1.50;0.53;;;10.80;99.90;;;;;;5205494;27;20524;-74
2024/04/19 10:08:33;;;;;;;0.40;0.40;;;10.60;99.90;;;;;;5204047;27;20536;-75
2024/04/19 10:11:02;;;;;;;1.45;1.45;;;10.60;99.90;;;;;;5205701;27;20895;-75
2024/04/19 10:13:31;;;;;;;0.80;0.80;;;10.80;99.90;;;;;;5206020;27;20687;-75
2024/04/19 10:16:02;;;;;;;0.70;0.70;;;10.90;99.90;;;;;;5208901;27;20237;-75
2024/04/19 10:18:36;;;;;;;0.80;0.80;;;11.20;99.90;;;;;;5207303;27;20485;-74
2024/04/19 10:21:05;;;;;;;1.30;1.03;;;11.30;99.90;;;;;;5205503;27;20541;-75
2024/04/19 10:23:33;;;;;;;3.80;2.23;;;11.40;99.90;;;;;;5208132;27;20596;-74
2024/04/19 10:26:02;;;;;;;18.00;6.37;;;11.30;99.90;;;;;;5208527;27;20610;-74
2024/04/19 10:28:31;;;;;;;2.13;1.47;;;11.20;99.90;;;;;;5208008;27;20555;-75
2024/04/19 10:31:02;;;;;;;0.65;0.65;;;10.90;99.90;;;;;;5207579;27;20489;-74
2024/04/19 10:33:31;;;;;;;1.00;0.90;;;10.30;99.90;;;;;;5204469;27;20242;-75
2024/04/19 10:35:59;;;;;;;0.80;0.80;;;9.50;99.90;;;;;;5208590;27;20325;-75
2024/04/19 10:38:29;;;;;;;1.42;1.33;;;8.90;99.90;;;;;;5206866;27;20266;-74
2024/04/19 10:40:54;;;;;;;3.80;2.03;;;8.70;99.90;;;;;;5201866;27;20855;-75
2024/04/19 10:43:23;;;;;;;2.90;1.50;;;8.60;99.90;;;;;;5206460;27;20283;-75
2024/04/19 10:45:51;;;;;;;3.15;2.58;;;8.50;99.90;;;;;;5199441;27;20845;-74
2024/04/19 10:48:23;;;;;;;3.92;1.88;;;8.50;99.90;;;;;;5206218;27;20238;-74
2024/04/19 10:50:51;;;;;;;2.60;2.10;;;8.60;99.90;;;;;;5206143;27;20284;-74
2024/04/19 10:53:21;;;;;;;5.78;2.90;;;8.70;99.90;;;;;;5205289;27;20328;-74
2024/04/19 10:55:49;;;;;;;3.33;1.25;;;8.90;99.90;;;;;;5206665;27;21183;-74
2024/04/19 10:58:18;;;;;;;2.83;2.25;;;8.80;99.90;;;;;;5206530;27;20369;-74
2024/04/19 11:00:48;;;;;;;2.47;2.28;;;8.70;99.90;;;;;;5205990;27;20245;-74
2024/04/19 11:03:16;;;;;;;0.60;0.60;;;8.70;99.90;;;;;;5198995;27;20245;-75
2024/04/19 11:05:48;;;;;;;1.35;1.25;;;8.60;99.90;;;;;;5206581;27;20254;-75
2024/04/19 11:08:17;;;;;;;2.28;2.05;;;8.50;99.90;;;;;;5198171;27;20680;-74
2024/04/19 11:10:45;;;;;;;0.95;0.70;;;8.60;99.90;;;;;;5206827;27;20877;-76
2024/04/19 11:13:14;;;;;;;0.60;0.60;;;8.80;99.90;;;;;;5206274;27;20360;-76
2024/04/19 11:15:42;;;;;;;1.00;0.95;;;9.10;99.90;;;;;;5206220;27;20275;-75
2024/04/19 11:18:11;;;;;;;1.45;1.27;;;9.30;99.90;;;;;;5206049;27;20249;-75
2024/04/19 11:20:39;;;;;;;1.05;1.05;;;9.40;99.90;;;;;;5205381;27;20250;-75
2024/04/19 11:23:10;;;;;;;0.90;0.85;;;9.60;99.90;;;;;;5205332;27;20245;-76
2024/04/19 11:25:40;;;;;;;0.85;0.60;;;9.60;99.90;;;;;;5205444;27;20548;-75
2024/04/19 11:28:09;;;;;;;0.80;0.77;;;9.80;99.90;;;;;;5206695;27;20364;-75
2024/04/19 11:30:40;;;;;;;2.45;0.80;;;10.00;99.90;;;;;;5204562;27;20284;-76
2024/04/19 11:33:09;;;;;;;0.80;0.80;;;10.20;99.90;;;;;;5203566;27;20559;-75
2024/04/19 11:35:40;;;;;;;1.05;1.00;;;10.30;99.90;;;;;;5206481;27;20284;-75
2024/04/19 11:38:16;;;;;;;3.45;0.73;;;10.50;99.90;;;;;;5206945;27;20245;-73
2024/04/19 11:40:45;;;;;;;3.53;1.30;;;10.60;99.90;;;;;;5202299;27;20612;-75
2024/04/19 11:43:14;;;;;;;0.93;0.93;;;10.70;99.90;;;;;;5206098;27;20768;-76
2024/04/19 11:45:43;;;;;;;0.73;0.73;;;10.70;99.90;;;;;;5205119;27;20506;-75
2024/04/19 11:48:12;;;;;;;0.90;0.90;;;10.60;99.90;;;;;;5206443;27;20245;-75
2024/04/19 11:50:40;;;;;;;1.27;0.60;;;10.60;99.90;;;;;;5205864;27;20292;-76
2024/04/19 11:53:11;;;;;;;0.52;0.52;;;10.40;99.90;;;;;;5206598;27;20295;-74
2024/04/19 11:55:40;;;;;;;1.85;0.68;;;10.00;99.90;;;;;;5206554;27;20241;-74
2024/04/19 11:58:08;;;;;;;0.30;0.30;;;9.70;99.90;;;;;;5206809;27;20237;-74
2024/04/19 12:00:36;;;;;;;0.80;0.80;;;9.60;99.90;;;;;;5204667;27;20250;-74
2024/04/19 12:03:05;;;;;;;0.40;0.40;;;9.60;99.90;;;;;;5204593;27;20250;-74
2024/04/19 12:05:33;;;;;;;3.22;1.67;;;9.80;99.90;;;;;;5206623;27;20245;-73
2024/04/19 12:08:02;;;;;;;1.75;0.75;;;10.00;99.90;;;;;;5206545;27;20280;-73
2024/04/19 12:10:33;;;;;;;1.27;1.17;;;10.00;99.90;;;;;;5206188;27;20276;-75
2024/04/19 12:13:01;;;;;;;2.00;0.70;;;10.00;99.90;;;;;;5206382;27;20249;-73
2024/04/19 12:15:30;;;;;;;3.03;1.00;;;10.00;99.90;;;;;;5205526;27;20574;-74
2024/04/19 12:18:00;;;;;;;0.60;0.60;;;9.90;99.90;;;;;;5204546;27;20607;-74
2024/04/19 12:20:28;;;;;;;1.52;0.70;;;9.80;99.90;;;;;;5205090;27;20267;-74
2024/04/19 12:22:57;;;;;;;3.85;1.17;;;9.70;99.90;;;;;;5201425;27;20245;-74
2024/04/19 12:25:25;;;;;;;1.52;1.38;;;9.60;99.90;;;;;;5205459;27;20257;-73
2024/04/19 12:27:56;;;;;;;0.85;0.85;;;9.60;99.90;;;;;;5205239;27;20280;-74
2024/04/19 12:30:25;;;;;;;0.60;0.60;;;9.70;99.90;;;;;;5205207;27;21098;-74
2024/04/19 12:32:53;;;;;;;0.52;0.52;;;9.70;99.90;;;;;;5204100;27;20241;-72
2024/04/19 12:35:23;;;;;;;0.95;0.95;;;9.90;99.90;;;;;;5205721;27;20241;-74
2024/04/19 12:37:51;;;;;;;0.75;0.75;;;10.00;99.90;;;;;;5205140;27;20705;-73
2024/04/19 12:40:20;;;;;;;1.48;0.90;;;10.30;99.90;;;;;;5200753;27;20241;-74
2024/04/19 12:42:48;;;;;;;1.02;1.02;;;10.50;99.90;;;;;;5205412;27;20246;-74
2024/04/19 12:45:19;;;;;;;0.95;0.95;;;10.60;99.90;;;;;;5195858;27;20279;-75
2024/04/19 12:47:48;;;;;;;1.30;1.00;;;10.70;99.90;;;;;;5205103;27;20245;-74
2024/04/19 12:50:16;;;;;;;1.27;1.08;;;10.80;99.90;;;;;;5196293;27;20259;-74
2024/04/19 12:52:44;;;;;;;0.60;0.60;;;11.00;99.90;;;;;;5205358;27;20233;-74
2024/04/19 12:55:13;;;;;;;5.37;1.00;;;11.10;99.90;;;;;;5205396;27;20321;-75
2024/04/19 12:57:41;;;;;;;2.23;2.13;;;11.00;99.90;;;;;;5203792;27;20632;-74
2024/04/19 13:00:11;;;;;;;2.47;1.33;;;10.90;99.90;;;;;;5204747;27;20520;-75
2024/04/19 13:02:42;;;;;;;1.90;1.00;;;11.00;99.90;;;;;;5204212;27;20321;-75
2024/04/19 13:05:10;;;;;;;4.10;1.00;;;11.10;99.90;;;;;;5205211;27;20493;-74
2024/04/19 13:07:39;;;;;;;3.80;1.77;;;11.20;99.90;;;;;;5203763;27;20365;-73
2024/04/19 13:10:08;;;;;;;2.60;1.43;;;11.30;99.90;;;;;;5202934;27;20590;-74
2024/04/19 13:12:36;;;;;;;1.47;1.30;;;11.40;99.90;;;;;;5204903;27;20631;-74
2024/04/19 13:15:05;;;;;;;0.90;0.57;;;11.30;99.90;;;;;;5205057;27;20609;-74
2024/04/19 13:17:37;;;;;;;7.25;1.42;;;11.40;99.90;;;;;;5205374;27;20477;-74
2024/04/19 13:20:09;;;;;;;0.98;0.82;;;11.40;99.90;;;;;;5215854;27;20554;-74
2024/04/19 13:22:37;;;;;;;1.10;1.08;;;11.40;99.90;;;;;;5219734;27;20245;-74
2024/04/19 13:25:06;;;;;;;1.95;0.85;;;11.40;99.90;;;;;;5219628;27;20288;-73
2024/04/19 13:27:35;;;;;;;1.03;1.00;;;11.50;99.90;;;;;;5218771;27;20564;-71
2024/04/19 13:30:04;;;;;;;0.83;0.77;;;11.50;99.90;;;;;;5219048;27;20473;-73
2024/04/19 13:32:33;;;;;;;1.13;1.13;;;11.70;99.90;;;;;;5215554;27;20525;-73
2024/04/19 13:35:01;;;;;;;5.63;1.20;;;11.80;99.90;;;;;;5204390;27;20494;-74
2024/04/19 13:37:32;;;;;;;1.07;0.97;;;12.10;99.90;;;;;;5216984;27;20845;-75
2024/04/19 13:40:01;;;;;;;2.90;1.33;;;12.10;99.90;;;;;;5201657;27;20613;-74
2024/04/19 13:42:29;;;;;;;1.30;1.30;;;12.20;99.90;;;;;;5204230;27;20563;-73
2024/04/19 13:44:57;;;;;;;1.10;1.10;;;12.10;99.90;;;;;;5204842;27;20481;-74
2024/04/19 13:47:26;;;;;;;2.03;1.10;;;11.90;99.90;;;;;;5205870;27;20568;-74
2024/04/19 13:49:55;;;;;;;3.08;1.20;;;11.70;99.90;;;;;;5203215;27;20588;-73
2024/04/19 13:52:23;;;;;;;1.63;1.00;;;11.40;99.90;;;;;;5206212;27;20245;-74
2024/04/19 13:54:54;;;;;;;2.45;1.17;;;11.30;99.90;;;;;;5204980;27;20308;-73
2024/04/19 13:57:23;;;;;;;0.82;0.82;;;11.10;99.90;;;;;;5204992;27;20241;-74
2024/04/19 13:59:52;;;;;;;4.38;3.20;;;11.10;99.90;;;;;;5202508;27;20711;-74
2024/04/19 14:02:20;;;;;;;1.50;1.40;;;10.90;99.90;;;;;;5204665;27;20289;-75
2024/04/19 14:04:48;;;;;;;3.47;1.83;;;10.60;99.90;;;;;;5204121;27;20241;-74
2024/04/19 14:07:17;;;;;;;1.42;1.35;;;10.50;99.90;;;;;;5194928;27;20795;-73
2024/04/19 14:09:45;;;;;;;2.60;1.20;;;10.50;99.90;;;;;;5203911;27;20498;-74
2024/04/19 14:12:17;;;;;;;2.88;1.48;;;10.50;99.90;;;;;;5202134;27;20373;-74
2024/04/19 14:14:45;;;;;;;0.98;0.95;;;10.50;99.90;;;;;;5204333;27;20287;-75
2024/04/19 14:17:13;;;;;;;1.52;1.42;;;10.60;99.90;;;;;;5204425;27;20241;-75
2024/04/19 14:19:42;;;;;;;1.33;1.27;;;10.60;99.90;;;;;;5204194;27;20702;-76
2024/04/19 14:22:11;;;;;;;1.50;0.80;;;10.70;99.90;;;;;;5204402;27;20745;-75
2024/04/19 14:24:40;;;;;;;3.78;1.27;;;10.60;99.90;;;;;;5203317;27;20237;-75
2024/04/19 14:27:08;;;;;;;0.75;0.75;;;10.60;99.90;;;;;;5203028;27;20245;-75
2024/04/19 14:29:39;;;;;;;0.60;0.60;;;10.70;99.90;;;;;;5203740;27;20705;-75
2024/04/19 14:32:08;;;;;;;7.45;0.90;;;10.80;99.90;;;;;;5204093;27;20324;-75
2024/04/19 14:34:36;;;;;;;4.90;1.65;;;10.70;99.90;;;;;;5204034;27;20241;-74
2024/04/19 14:37:05;;;;;;;0.50;0.50;;;10.80;99.90;;;;;;5204465;27;20708;-75
2024/04/19 14:39:33;;;;;;;0.68;0.68;;;10.80;99.90;;;;;;5202729;27;20585;-75
2024/04/19 14:42:01;;;;;;;3.33;0.77;;;10.80;99.90;;;;;;5201716;27;20329;-75
2024/04/19 14:44:30;;;;;;;2.05;0.60;;;10.90;99.90;;;;;;5204598;27;20936;-75
2024/04/19 14:47:02;;;;;;;1.10;0.88;;;11.00;99.90;;;;;;5205818;27;20245;-74
2024/04/19 14:49:31;;;;;;;0.93;0.85;;;11.00;99.90;;;;;;5210352;27;20617;-75
2024/04/19 14:52:01;;;;;;;0.88;0.88;;;11.00;99.90;;;;;;5203902;27;20241;-76
2024/04/19 14:54:30;;;;;;;2.00;0.50;;;11.10;99.90;;;;;;5202166;27;20237;-76
2024/04/19 14:56:59;;;;;;;2.70;0.80;;;11.20;99.90;;;;;;5203810;27;20936;-75
2024/04/19 14:59:27;;;;;;;3.00;0.90;;;11.30;99.90;;;;;;5203696;27;20581;-76
2024/04/19 15:01:56;;;;;;;2.70;1.08;;;11.20;99.90;;;;;;5205834;27;20537;-74
2024/04/19 15:04:27;;;;;;;0.50;0.50;;;11.10;99.90;;;;;;5206906;27;20293;-75
2024/04/19 15:06:55;;;;;;;0.85;0.65;;;11.00;99.90;;;;;;5206854;27;20967;-75
2024/04/19 15:09:24;;;;;;;3.17;1.10;;;10.90;99.90;;;;;;5205793;27;20715;-75
2024/04/19 15:11:53;;;;;;;2.03;1.10;;;10.90;99.90;;;;;;5206758;27;20894;-75
2024/04/19 15:14:21;;;;;;;0.85;0.85;;;10.80;99.90;;;;;;5207242;27;20276;-76
2024/04/19 15:16:50;;;;;;;0.70;0.70;;;10.70;99.90;;;;;;5206833;27;20697;-76
2024/04/19 15:19:19;;;;;;;0.85;0.82;;;10.70;99.90;;;;;;5206535;27;20656;-75
2024/04/19 15:21:50;;;;;;;0.47;0.47;;;10.60;99.90;;;;;;5198237;27;20250;-76
2024/04/19 15:24:18;;;;;;;3.03;1.15;;;10.50;99.90;;;;;;5196388;27;20257;-75
2024/04/19 15:26:47;;;;;;;4.55;1.15;;;10.50;99.90;;;;;;5206810;27;20852;-76
2024/04/19 15:29:16;;;;;;;1.55;0.88;;;10.40;99.90;;;;;;5207233;27;20280;-75
2024/04/19 15:31:44;;;;;;;1.08;0.95;;;10.30;99.90;;;;;;5207102;27;20325;-75
2024/04/19 15:34:13;;;;;;;2.42;0.80;;;10.40;99.90;;;;;;5207161;27;20257;-75
2024/04/19 15:36:41;;;;;;;0.75;0.65;;;10.50;99.90;;;;;;5205592;27;20377;-75
2024/04/19 15:39:12;;;;;;;1.45;0.68;;;10.40;99.90;;;;;;5206654;27;20241;-75
2024/04/19 15:41:41;;;;;;;1.00;1.00;;;10.40;99.90;;;;;;5207028;27;20724;-75
2024/04/19 15:44:09;;;;;;;0.65;0.63;;;10.40;99.90;;;;;;5207166;27;20351;-75
2024/04/19 15:46:40;;;;;;;4.82;0.90;;;10.40;99.90;;;;;;5204956;27;20312;-75
2024/04/19 15:49:08;;;;;;;1.65;0.90;;;10.40;99.90;;;;;;5206332;27;20908;-76
2024/04/19 15:51:38;;;;;;;1.02;1.02;;;10.60;99.90;;;;;;5206866;27;20249;-76
2024/04/19 15:54:06;;;;;;;0.50;0.50;;;10.70;99.90;;;;;;5204534;27;20383;-75
2024/04/19 15:56:37;;;;;;;1.13;1.02;;;10.80;99.90;;;;;;5206468;27;20312;-74
2024/04/19 15:59:05;;;;;;;2.75;1.23;;;10.90;99.90;;;;;;5203711;27;20611;-75
2024/04/19 16:01:38;;;;;;;0.60;0.60;;;10.90;99.90;;;;;;5204628;27;20249;-75
2024/04/19 16:04:07;;;;;;;2.25;1.00;;;10.90;99.90;;;;;;5204487;27;20268;-76
2024/04/19 16:06:36;;;;;;;2.27;1.00;;;10.90;99.90;;;;;;5206341;27;20565;-75
2024/04/19 16:09:04;;;;;;;2.58;0.98;;;11.00;99.90;;;;;;5205957;27;20470;-76
2024/04/19 16:11:33;;;;;;;1.33;0.60;;;11.10;99.90;;;;;;5206211;27;20291;-76
2024/04/19 16:14:04;;;;;;;2.25;0.93;;;11.00;99.90;;;;;;5206535;27;20253;-75
2024/04/19 16:16:32;;;;;;;0.70;0.70;;;11.00;99.90;;;;;;5205739;27;20351;-76
2024/04/19 16:19:00;;;;;;;0.70;0.70;;;10.80;99.90;;;;;;5205935;27;20559;-76
2024/04/19 16:21:29;;;;;;;1.60;0.85;;;10.80;99.90;;;;;;5207105;27;20517;-77
2024/04/19 16:23:58;;;;;;;1.48;1.48;;;10.80;99.90;;;;;;5207256;27;20245;-76
2024/04/19 16:26:26;;;;;;;0.90;0.90;;;10.60;99.90;;;;;;5206603;27;20310;-74
2024/04/19 16:28:55;;;;;;;9.13;1.65;;;10.50;99.90;;;;;;5205782;27;20292;-75
2024/04/19 16:31:26;;;;;;;0.85;0.82;;;10.40;99.90;;;;;;5204927;27;20246;-74
2024/04/19 16:33:54;;;;;;;6.60;1.33;;;10.20;99.90;;;;;;5204685;27;20245;-75
2024/04/19 16:36:22;;;;;;;1.30;0.80;;;10.10;99.90;;;;;;5206170;27;20866;-75
2024/04/19 16:38:51;;;;;;;2.88;0.70;;;9.90;99.90;;;;;;5205109;27;20241;-75
2024/04/19 16:41:20;;;;;;;3.08;1.20;;;9.80;99.90;;;;;;5197149;27;20357;-75
2024/04/19 16:43:48;;;;;;;1.20;1.02;;;9.70;99.90;;;;;;5205275;27;20794;-75
2024/04/19 16:46:16;;;;;;;1.65;0.63;;;9.70;99.90;;;;;;5203798;27;20744;-75
2024/04/19 16:48:47;;;;;;;0.90;0.90;;;9.60;99.90;;;;;;5203394;27;20245;-75
2024/04/19 16:51:17;;;;;;;5.28;1.38;;;9.60;99.90;;;;;;5205094;27;20287;-74
2024/04/19 16:53:46;;;;;;;2.00;1.35;;;9.60;99.90;;;;;;5205062;27;20574;-72
2024/04/19 16:56:16;;;;;;;1.33;1.02;;;9.60;99.90;;;;;;5205433;27;20241;-74
2024/04/19 16:58:44;;;;;;;2.72;0.95;;;9.60;99.90;;;;;;5204794;27;20248;-74
2024/04/19 17:01:12;;;;;;;0.98;0.98;;;9.50;99.90;;;;;;5205291;27;20265;-73
2024/04/19 17:03:41;;;;;;;2.15;1.00;;;9.50;99.90;;;;;;5203354;27;20865;-76